NY41 weather

Best Western Red Jacket Inn Heliport
Niagara Falls, New York, United States

Public forecast

Using degrees Fahrenheit for public forecast. Weather courtesy of forecast.io.

Closest aviation weather report (METAR) to Best Western Red Jacket Inn Heliport

Closest report is Niagara Falls International Airport, 2.7 nm (5.0 km) NE. Retrieved 2019/10/20 22:53 UTC (8 minutes ago):

KIAG 202253Z 02004KT 10SM BKN110 13/09 A2993 RMK AO2 SLP144 T01280094

Closest aviation forecast (TAF) to Best Western Red Jacket Inn Heliport

Closest forecast is Niagara Falls International Airport, 2.7 nm (5.0 km) NE. Retrieved 2019/10/20 18:42 UTC (4 hours ago):

TAF KIAG 201739Z 2018/2118 23005KT P6SM SCT250 FM202100 VRB03KT P6SM SCT200 FM211300 10005KT P6SM SCT250